^^
Your Local Weather - Clay, NY Station Historical Data
Daily Summary for March 2, 2018 Units:  Both    English   Metric
« Previous Day
Next Day »
Daily Weekly Monthly Yearly Custom
  High: Low: Average:
Temperature: 35.2 °F /  1.8 °C 28.0 °F /  -2.2 °C 29.6 °F /  -1.3 °C
Dew Point: 32.0 °F /  0 °C 26.5 °F /  -3.1 °C 27.8 °F /  -2.3 °C
Humidity: 94% 88% 93%
Wind Speed: 3.0mph /  4.8km/h - 0.3mph /  0.5km/h
Wind Gust: 6.0mph /  9.7km/h - -
Wind- - ENE
Pressure: 30.15 in /  1020.9 hPa 29.59 in /  1001.9 hPa -
Precipitation: 0.08 in /  2.03 mm    
Historical Graphs
 
 
Tabular Data for March 2, 2018
Time Temperature Dew Point Pressure Wind Wind Speed Wind Gust Humidity Rainfall Rate (Hourly) solar
00:00 35.2 °F /  1.8 °C 32.0 °F /  0 °C 29.61in /  1002.6hPa ENE 3.0mph /  4.8km/h 3.0mph /  4.8km/h 88% 0.08in /  2.03mm 0 W/m2
00:06 34.9 °F /  1.6 °C 31.7 °F /  -0.2 °C 29.61in /  1002.6hPa NE 3.0mph /  4.8km/h 4.0mph /  6.4km/h 88% 0.11in /  2.79mm 0 W/m2
00:12 34.7 °F /  1.5 °C 31.5 °F /  -0.3 °C 29.61in /  1002.6hPa NNE 3.0mph /  4.8km/h 3.0mph /  4.8km/h 88% 0.09in /  2.29mm 0 W/m2
00:18 34.5 °F /  1.4 °C 31.6 °F /  -0.2 °C 29.60in /  1002.3hPa ENE 3.0mph /  4.8km/h 6.0mph /  9.7km/h 89% 0.10in /  2.54mm 0 W/m2
00:24 34.3 °F /  1.3 °C 31.4 °F /  -0.3 °C 29.60in /  1002.3hPa East 3.0mph /  4.8km/h 6.0mph /  9.7km/h 89% 0.07in /  1.78mm 0 W/m2
00:30 34.1 °F /  1.2 °C 31.2 °F /  -0.4 °C 29.60in /  1002.3hPa NNE 2.0mph /  3.2km/h 2.0mph /  3.2km/h 89% 0.10in /  2.54mm 0 W/m2
00:36 33.9 °F /  1.1 °C 31.0 °F /  -0.6 °C 29.60in /  1002.3hPa ENE 3.0mph /  4.8km/h 4.0mph /  6.4km/h 89% 0.06in /  1.52mm 0 W/m2
00:42 33.5 °F /  0.8 °C 30.9 °F /  -0.6 °C 29.60in /  1002.3hPa NE 3.0mph /  4.8km/h 5.0mph /  8km/h 90% 0.05in /  1.27mm 0 W/m2
00:48 33.2 °F /  0.7 °C 30.6 °F /  -0.8 °C 29.60in /  1002.3hPa NE 2.0mph /  3.2km/h 5.0mph /  8km/h 90% 0.05in /  1.27mm 0 W/m2
00:54 33.0 °F /  0.6 °C 30.4 °F /  -0.9 °C 29.59in /  1001.9hPa NE 1.0mph /  1.6km/h 2.0mph /  3.2km/h 90% 0.04in /  1.02mm 0 W/m2
01:00 32.8 °F /  0.4 °C 30.2 °F /  -1 °C 29.59in /  1001.9hPa NE 2.0mph /  3.2km/h 2.0mph /  3.2km/h 90% 0.00in /  0mm 0 W/m2
01:06 32.6 °F /  0.3 °C 30.0 °F /  -1.1 °C 29.59in /  1001.9hPa NNE 1.0mph /  1.6km/h 2.0mph /  3.2km/h 90% 0.00in /  0mm 0 W/m2
01:12 32.5 °F /  0.3 °C 29.9 °F /  -1.2 °C 29.60in /  1002.3hPa NE 1.0mph /  1.6km/h 1.0mph /  1.6km/h 90% 0.00in /  0mm 0 W/m2
01:18 32.4 °F /  0.2 °C 30.1 °F /  -1.1 °C 29.60in /  1002.3hPa NE 1.0mph /  1.6km/h 1.0mph /  1.6km/h 91% 0.00in /  0mm 0 W/m2
01:24 32.3 °F /  0.2 °C 30.0 °F /  -1.1 °C 29.60in /  1002.3hPa NE 1.0mph /  1.6km/h 1.0mph /  1.6km/h 91% 0.00in /  0mm 0 W/m2
01:30 32.3 °F /  0.2 °C 30.0 °F /  -1.1 °C 29.60in /  1002.3hPa North 1.0mph /  1.6km/h 4.0mph /  6.4km/h 91% 0.00in /  0mm 0 W/m2
01:36 32.2 °F /  0.1 °C 29.9 °F /  -1.2 °C 29.60in /  1002.3hPa NNE 1.0mph /  1.6km/h 4.0mph /  6.4km/h 91% 0.00in /  0mm 0 W/m2
01:42 32.2 °F /  0.1 °C 29.9 °F /  -1.2 °C 29.60in /  1002.3hPa North 2.0mph /  3.2km/h 3.0mph /  4.8km/h 91% 0.00in /  0mm 0 W/m2
01:48 32.2 °F /  0.1 °C 29.9 °F /  -1.2 °C 29.60in /  1002.3hPa NNW 2.0mph /  3.2km/h 3.0mph /  4.8km/h 91% 0.00in /  0mm 0 W/m2
01:54 32.2 °F /  0.1 °C 29.9 °F /  -1.2 °C 29.59in /  1001.9hPa NNW 2.0mph /  3.2km/h 3.0mph /  4.8km/h 91% 0.00in /  0mm 0 W/m2
02:00 32.2 °F /  0.1 °C 29.9 °F /  -1.2 °C 29.59in /  1001.9hPa NNE 2.0mph /  3.2km/h 2.0mph /  3.2km/h 91% 0.00in /  0mm 0 W/m2
02:06 32.2 °F /  0.1 °C 30.1 °F /  -1.1 °C 29.59in /  1001.9hPa NE 2.0mph /  3.2km/h 2.0mph /  3.2km/h 92% 0.00in /  0mm 0 W/m2
02:12 32.2 °F /  0.1 °C 30.1 °F /  -1.1 °C 29.59in /  1001.9hPa NNE 2.0mph /  3.2km/h 2.0mph /  3.2km/h 92% 0.00in /  0mm 0 W/m2
02:18 32.2 °F /  0.1 °C 30.1 °F /  -1.1 °C 29.59in /  1001.9hPa NNE 2.0mph /  3.2km/h 2.0mph /  3.2km/h 92% 0.00in /  0mm 0 W/m2
02:24 32.2 °F /  0.1 °C 30.1 °F /  -1.1 °C 29.59in /  1001.9hPa North 2.0mph /  3.2km/h 3.0mph /  4.8km/h 92% 0.00in /  0mm 0 W/m2
02:30 32.1 °F /  0.1 °C 30.0 °F /  -1.1 °C 29.59in /  1001.9hPa NE 2.0mph /  3.2km/h 2.0mph /  3.2km/h 92% 0.00in /  0mm 0 W/m2
02:36 32.1 °F /  0.1 °C 30.0 °F /  -1.1 °C 29.59in /  1001.9hPa NNE 2.0mph /  3.2km/h 3.0mph /  4.8km/h 92% 0.00in /  0mm 0 W/m2
02:42 32.1 °F /  0.1 °C 30.0 °F /  -1.1 °C 29.59in /  1001.9hPa NNE 2.0mph /  3.2km/h 2.0mph /  3.2km/h 92% 0.00in /  0mm 0 W/m2
02:48 32.1 °F /  0.1 °C 30.0 °F /  -1.1 °C 29.59in /  1001.9hPa North 2.0mph /  3.2km/h 4.0mph /  6.4km/h 92% 0.00in /  0mm 0 W/m2
02:54 32.1 °F /  0.1 °C 30.0 °F /  -1.1 °C 29.59in /  1001.9hPa ENE 2.0mph /  3.2km/h 4.0mph /  6.4km/h 92% 0.00in /  0mm 0 W/m2
03:00 32.1 °F /  0.1 °C 30.0 °F /  -1.1 °C 29.59in /  1001.9hPa NE 3.0mph /  4.8km/h 3.0mph /  4.8km/h 92% 0.00in /  0mm 0 W/m2
03:06 32.1 °F /  0.1 °C 30.0 °F /  -1.1 °C 29.60in /  1002.3hPa NNE 2.0mph /  3.2km/h 6.0mph /  9.7km/h 92% 0.00in /  0mm 0 W/m2
03:12 32.1 °F /  0.1 °C 30.0 °F /  -1.1 °C 29.60in /  1002.3hPa NNE 1.0mph /  1.6km/h 1.0mph /  1.6km/h 92% 0.00in /  0mm 0 W/m2
03:18 32.1 °F /  0.1 °C 30.0 °F /  -1.1 °C 29.60in /  1002.3hPa Calm   1.0mph /  1.6km/h 92% 0.00in /  0mm 0 W/m2
03:24 32.0 °F /  0 °C 29.9 °F /  -1.2 °C 29.60in /  1002.3hPa NNE 1.0mph /  1.6km/h 5.0mph /  8km/h 92% 0.00in /  0mm 0 W/m2
03:30 32.0 °F /  0 °C 29.9 °F /  -1.2 °C 29.60in /  1002.3hPa NNE 2.0mph /  3.2km/h 3.0mph /  4.8km/h 92% 0.00in /  0mm 0 W/m2
03:36 32.0 °F /  0 °C 29.9 °F /  -1.2 °C 29.60in /  1002.3hPa NNE 2.0mph /  3.2km/h 3.0mph /  4.8km/h 92% 0.00in /  0mm 0 W/m2
03:42 32.0 °F /  0 °C 29.9 °F /  -1.2 °C 29.60in /  1002.3hPa North 1.0mph /  1.6km/h 3.0mph /  4.8km/h 92% 0.00in /  0mm 0 W/m2
03:48 31.9 °F /  -0.1 °C 29.8 °F /  -1.2 °C 29.60in /  1002.3hPa NNE 2.0mph /  3.2km/h 3.0mph /  4.8km/h 92% 0.00in /  0mm 0 W/m2
03:54 31.9 °F /  -0.1 °C 29.8 °F /  -1.2 °C 29.60in /  1002.3hPa ENE 1.0mph /  1.6km/h 2.0mph /  3.2km/h 92% 0.00in /  0mm 0 W/m2
04:00 31.9 °F /  -0.1 °C 30.1 °F /  -1.1 °C 29.60in /  1002.3hPa Calm     93% 0.00in /  0mm 0 W/m2
04:06 31.9 °F /  -0.1 °C 30.1 °F /  -1.1 °C 29.60in /  1002.3hPa Calm     93% 0.00in /  0mm 0 W/m2
04:12 31.9 °F /  -0.1 °C 30.1 °F /  -1.1 °C 29.61in /  1002.6hPa Calm     93% 0.00in /  0mm 0 W/m2
04:18 31.8 °F /  -0.1 °C 30.0 °F /  -1.1 °C 29.61in /  1002.6hPa Calm     93% 0.00in /  0mm 0 W/m2
04:26 31.8 °F /  -0.1 °C 30.0 °F /  -1.1 °C 29.61in /  1002.6hPa Calm     93% 0.00in /  0mm 0 W/m2
04:32 31.8 °F /  -0.1 °C 30.0 °F /  -1.1 °C 29.61in /  1002.6hPa Calm     93% 0.00in /  0mm 0 W/m2
04:38 31.8 °F /  -0.1 °C 30.0 °F /  -1.1 °C 29.62in /  1002.9hPa Calm     93% 0.00in /  0mm 0 W/m2
04:44 31.8 °F /  -0.1 °C 30.0 °F /  -1.1 °C 29.63in /  1003.3hPa Calm     93% 0.00in /  0mm 0 W/m2
04:50 31.7 °F /  -0.2 °C 29.9 °F /  -1.2 °C 29.63in /  1003.3hPa Calm     93% 0.00in /  0mm 0 W/m2
04:56 31.6 °F /  -0.2 °C 29.8 °F /  -1.2 °C 29.63in /  1003.3hPa Calm     93% 0.00in /  0mm 0 W/m2
05:02 31.6 °F /  -0.2 °C 29.8 °F /  -1.2 °C 29.63in /  1003.3hPa Calm     93% 0.00in /  0mm 0 W/m2
05:08 31.5 °F /  -0.3 °C 29.7 °F /  -1.3 °C 29.63in /  1003.3hPa Calm     93% 0.00in /  0mm 0 W/m2
05:14 31.4 °F /  -0.3 °C 29.6 °F /  -1.3 °C 29.64in /  1003.6hPa Calm     93% 0.00in /  0mm 0 W/m2
05:20 31.3 °F /  -0.4 °C 29.5 °F /  -1.4 °C 29.65in /  1003.9hPa Calm     93% 0.00in /  0mm 0 W/m2
05:26 31.2 °F /  -0.4 °C 29.4 °F /  -1.4 °C 29.65in /  1003.9hPa Calm     93% 0.00in /  0mm 0 W/m2
05:32 31.0 °F /  -0.6 °C 29.2 °F /  -1.6 °C 29.65in /  1003.9hPa Calm     93% 0.00in /  0mm 0 W/m2
05:38 30.9 °F /  -0.6 °C 29.1 °F /  -1.6 °C 29.66in /  1004.3hPa Calm     93% 0.00in /  0mm 0 W/m2
05:44 30.7 °F /  -0.7 °C 28.9 °F /  -1.7 °C 29.66in /  1004.3hPa Calm     93% 0.00in /  0mm 0 W/m2
05:50 30.6 °F /  -0.8 °C 28.8 °F /  -1.8 °C 29.66in /  1004.3hPa Calm     93% 0.00in /  0mm 0 W/m2
05:56 30.5 °F /  -0.8 °C 28.7 °F /  -1.8 °C 29.66in /  1004.3hPa Calm     93% 0.00in /  0mm 0 W/m2
06:02 30.4 °F /  -0.9 °C 28.6 °F /  -1.9 °C 29.66in /  1004.3hPa Calm     93% 0.00in /  0mm 0 W/m2
06:08 30.3 °F /  -0.9 °C 28.5 °F /  -1.9 °C 29.67in /  1004.6hPa Calm     93% 0.00in /  0mm 0 W/m2
06:14 30.2 °F /  -1 °C 28.4 °F /  -2 °C 29.67in /  1004.6hPa Calm     93% 0.00in /  0mm 0 W/m2
06:20 30.1 °F /  -1.1 °C 28.3 °F /  -2.1 °C 29.68in /  1005hPa Calm     93% 0.00in /  0mm 0 W/m2
06:26 30.1 °F /  -1.1 °C 28.3 °F /  -2.1 °C 29.68in /  1005hPa Calm     93% 0.00in /  0mm 0 W/m2
06:32 30.0 °F /  -1.1 °C 28.2 °F /  -2.1 °C 29.68in /  1005hPa Calm     93% 0.00in /  0mm 0 W/m2
06:38 29.9 °F /  -1.2 °C 28.1 °F /  -2.2 °C 29.69in /  1005.3hPa Calm     93% 0.00in /  0mm 0 W/m2
06:44 29.7 °F /  -1.3 °C 27.9 °F /  -2.3 °C 29.69in /  1005.3hPa Calm     93% 0.00in /  0mm 0 W/m2
06:50 29.6 °F /  -1.3 °C 27.8 °F /  -2.3 °C 29.69in /  1005.3hPa Calm     93% 0.00in /  0mm 0 W/m2
06:56 29.4 °F /  -1.4 °C 27.6 °F /  -2.4 °C 29.70in /  1005.6hPa Calm     93% 0.00in /  0mm 0 W/m2
07:02 29.3 °F /  -1.5 °C 27.5 °F /  -2.5 °C 29.71in /  1006hPa Calm     93% 0.00in /  0mm 0 W/m2
07:08 29.2 °F /  -1.6 °C 27.4 °F /  -2.6 °C 29.71in /  1006hPa Calm     93% 0.00in /  0mm 0 W/m2
07:14 29.0 °F /  -1.7 °C 27.2 °F /  -2.7 °C 29.72in /  1006.3hPa Calm     93% 0.00in /  0mm 0 W/m2
07:20 28.9 °F /  -1.7 °C 27.1 °F /  -2.7 °C 29.73in /  1006.7hPa Calm     93% 0.00in /  0mm 0 W/m2
07:26 28.8 °F /  -1.8 °C 27.0 °F /  -2.8 °C 29.73in /  1006.7hPa Calm     93% 0.00in /  0mm 0 W/m2
07:32 28.7 °F /  -1.8 °C 26.9 °F /  -2.8 °C 29.73in /  1006.7hPa Calm     93% 0.00in /  0mm 5 W/m2
07:38 28.6 °F /  -1.9 °C 26.8 °F /  -2.9 °C 29.73in /  1006.7hPa Calm     93% 0.00in /  0mm 5 W/m2
07:44 28.6 °F /  -1.9 °C 26.8 °F /  -2.9 °C 29.73in /  1006.7hPa Calm     93% 0.00in /  0mm 7 W/m2
07:50 28.5 °F /  -1.9 °C 26.7 °F /  -2.9 °C 29.74in /  1007hPa Calm     93% 0.00in /  0mm 7 W/m2
07:56 28.5 °F /  -1.9 °C 26.7 °F /  -2.9 °C 29.74in /  1007hPa Calm     93% 0.00in /  0mm 11 W/m2
08:02 28.5 °F /  -1.9 °C 26.7 °F /  -2.9 °C 29.74in /  1007hPa Calm     93% 0.00in /  0mm 14 W/m2
08:08 28.5 °F /  -1.9 °C 26.7 °F /  -2.9 °C 29.75in /  1007.3hPa Calm     93% 0.00in /  0mm 16 W/m2
08:14 28.6 °F /  -1.9 °C 26.8 °F /  -2.9 °C 29.75in /  1007.3hPa Calm     93% 0.00in /  0mm 19 W/m2
08:20 28.5 °F /  -1.9 °C 26.7 °F /  -2.9 °C 29.75in /  1007.3hPa Calm     93% 0.00in /  0mm 19 W/m2
08:26 28.4 °F /  -2 °C 26.6 °F /  -3 °C 29.76in /  1007.7hPa Calm     93% 0.00in /  0mm 19 W/m2
08:32 28.3 °F /  -2.1 °C 26.5 °F /  -3.1 °C 29.76in /  1007.7hPa Calm     93% 0.00in /  0mm 21 W/m2
08:38 28.3 °F /  -2.1 °C 26.5 °F /  -3.1 °C 29.77in /  1008hPa Calm     93% 0.00in /  0mm 21 W/m2
08:44 28.3 °F /  -2.1 °C 26.5 °F /  -3.1 °C 29.77in /  1008hPa Calm     93% 0.00in /  0mm 21 W/m2
08:50 28.3 °F /  -2.1 °C 26.5 °F /  -3.1 °C 29.78in /  1008.4hPa Calm     93% 0.00in /  0mm 23 W/m2
08:56 28.3 °F /  -2.1 °C 26.5 °F /  -3.1 °C 29.78in /  1008.4hPa Calm     93% 0.00in /  0mm 25 W/m2
09:02 28.3 °F /  -2.1 °C 26.5 °F /  -3.1 °C 29.79in /  1008.7hPa Calm     93% 0.00in /  0mm 28 W/m2
09:08 28.3 °F /  -2.1 °C 26.5 °F /  -3.1 °C 29.79in /  1008.7hPa Calm     93% 0.00in /  0mm 32 W/m2
09:14 28.4 °F /  -2 °C 26.6 °F /  -3 °C 29.80in /  1009hPa Calm     93% 0.00in /  0mm 32 W/m2
09:20 28.5 °F /  -1.9 °C 26.7 °F /  -2.9 °C 29.80in /  1009hPa Calm     93% 0.00in /  0mm 32 W/m2
09:26 28.5 °F /  -1.9 °C 26.7 °F /  -2.9 °C 29.81in /  1009.4hPa Calm     93% 0.00in /  0mm 37 W/m2
09:32 28.6 °F /  -1.9 °C 26.8 °F /  -2.9 °C 29.81in /  1009.4hPa Calm     93% 0.00in /  0mm 39 W/m2
09:38 28.5 °F /  -1.9 °C 26.7 °F /  -2.9 °C 29.82in /  1009.7hPa Calm     93% 0.00in /  0mm 30 W/m2
09:44 28.6 °F /  -1.9 °C 26.8 °F /  -2.9 °C 29.82in /  1009.7hPa Calm     93% 0.00in /  0mm 30 W/m2
09:50 28.6 °F /  -1.9 °C 26.8 °F /  -2.9 °C 29.82in /  1009.7hPa Calm     93% 0.00in /  0mm 30 W/m2
09:56 28.6 °F /  -1.9 °C 26.8 °F /  -2.9 °C 29.83in /  1010hPa Calm     93% 0.00in /  0mm 33 W/m2
10:02 28.7 °F /  -1.8 °C 26.9 °F /  -2.8 °C 29.83in /  1010hPa Calm     93% 0.00in /  0mm 35 W/m2
10:08 28.8 °F /  -1.8 °C 27.0 °F /  -2.8 °C 29.83in /  1010hPa Calm     93% 0.00in /  0mm 35 W/m2
10:14 28.9 °F /  -1.7 °C 27.1 °F /  -2.7 °C 29.83in /  1010hPa Calm     93% 0.00in /  0mm 35 W/m2
10:20 28.9 °F /  -1.7 °C 27.4 °F /  -2.6 °C 29.84in /  1010.4hPa Calm     94% 0.00in /  0mm 35 W/m2
10:26 29.0 °F /  -1.7 °C 27.5 °F /  -2.5 °C 29.84in /  1010.4hPa Calm     94% 0.00in /  0mm 39 W/m2
10:32 29.1 °F /  -1.6 °C 27.6 °F /  -2.4 °C 29.84in /  1010.4hPa Calm     94% 0.00in /  0mm 40 W/m2
10:38 29.2 °F /  -1.6 °C 27.7 °F /  -2.4 °C 29.85in /  1010.7hPa Calm     94% 0.00in /  0mm 40 W/m2
10:44 29.3 °F /  -1.5 °C 27.8 °F /  -2.3 °C 29.85in /  1010.7hPa Calm     94% 0.00in /  0mm 39 W/m2
10:50 29.2 °F /  -1.6 °C 27.7 °F /  -2.4 °C 29.85in /  1010.7hPa Calm     94% 0.00in /  0mm 39 W/m2
10:56 29.2 °F /  -1.6 °C 27.7 °F /  -2.4 °C 29.86in /  1011.1hPa Calm     94% 0.00in /  0mm 39 W/m2
11:02 29.1 °F /  -1.6 °C 27.6 °F /  -2.4 °C 29.86in /  1011.1hPa Calm     94% 0.00in /  0mm 39 W/m2
11:08 29.1 °F /  -1.6 °C 27.6 °F /  -2.4 °C 29.87in /  1011.4hPa Calm     94% 0.00in /  0mm 39 W/m2
11:14 29.2 °F /  -1.6 °C 27.7 °F /  -2.4 °C 29.87in /  1011.4hPa Calm     94% 0.00in /  0mm 40 W/m2
11:20 29.2 °F /  -1.6 °C 27.7 °F /  -2.4 °C 29.88in /  1011.7hPa Calm     94% 0.00in /  0mm 39 W/m2
11:26 29.2 °F /  -1.6 °C 27.7 °F /  -2.4 °C 29.88in /  1011.7hPa Calm     94% 0.00in /  0mm 42 W/m2
11:32 29.4 °F /  -1.4 °C 27.9 °F /  -2.3 °C 29.88in /  1011.7hPa Calm     94% 0.00in /  0mm 46 W/m2
11:38 29.3 °F /  -1.5 °C 27.8 °F /  -2.3 °C 29.88in /  1011.7hPa Calm     94% 0.00in /  0mm 44 W/m2
11:44 29.2 °F /  -1.6 °C 27.7 °F /  -2.4 °C 29.88in /  1011.7hPa Calm     94% 0.00in /  0mm 42 W/m2
11:50 29.2 °F /  -1.6 °C 27.7 °F /  -2.4 °C 29.89in /  1012.1hPa Calm     94% 0.00in /  0mm 39 W/m2
11:56 29.2 °F /  -1.6 °C 27.7 °F /  -2.4 °C 29.89in /  1012.1hPa Calm     94% 0.00in /  0mm 42 W/m2
12:02 29.1 °F /  -1.6 °C 27.6 °F /  -2.4 °C 29.89in /  1012.1hPa Calm     94% 0.00in /  0mm 46 W/m2
12:08 29.1 °F /  -1.6 °C 27.6 °F /  -2.4 °C 29.89in /  1012.1hPa Calm     94% 0.00in /  0mm 51 W/m2
12:14 29.1 °F /  -1.6 °C 27.6 °F /  -2.4 °C 29.89in /  1012.1hPa Calm     94% 0.00in /  0mm 46 W/m2
12:20 29.2 °F /  -1.6 °C 27.7 °F /  -2.4 °C 29.89in /  1012.1hPa Calm     94% 0.00in /  0mm 47 W/m2
12:26 29.2 °F /  -1.6 °C 27.7 °F /  -2.4 °C 29.90in /  1012.4hPa Calm     94% 0.00in /  0mm 49 W/m2
12:32 29.3 °F /  -1.5 °C 27.8 °F /  -2.3 °C 29.90in /  1012.4hPa Calm     94% 0.00in /  0mm 49 W/m2
12:38 29.3 °F /  -1.5 °C 27.8 °F /  -2.3 °C 29.90in /  1012.4hPa Calm     94% 0.00in /  0mm 51 W/m2
12:44 29.3 °F /  -1.5 °C 27.8 °F /  -2.3 °C 29.90in /  1012.4hPa Calm     94% 0.00in /  0mm 51 W/m2
12:50 29.3 °F /  -1.5 °C 27.8 °F /  -2.3 °C 29.90in /  1012.4hPa Calm     94% 0.00in /  0mm 47 W/m2
12:56 29.2 °F /  -1.6 °C 27.7 °F /  -2.4 °C 29.91in /  1012.8hPa Calm     94% 0.00in /  0mm 49 W/m2
13:02 29.3 °F /  -1.5 °C 27.8 °F /  -2.3 °C 29.91in /  1012.8hPa Calm     94% 0.00in /  0mm 49 W/m2
13:08 29.2 °F /  -1.6 °C 27.7 °F /  -2.4 °C 29.91in /  1012.8hPa Calm     94% 0.00in /  0mm 42 W/m2
13:14 29.1 °F /  -1.6 °C 27.6 °F /  -2.4 °C 29.91in /  1012.8hPa Calm     94% 0.00in /  0mm 40 W/m2
13:20 29.1 °F /  -1.6 °C 27.6 °F /  -2.4 °C 29.92in /  1013.1hPa Calm     94% 0.00in /  0mm 37 W/m2
13:26 29.1 °F /  -1.6 °C 27.6 °F /  -2.4 °C 29.93in /  1013.4hPa Calm     94% 0.00in /  0mm 39 W/m2
13:32 29.1 °F /  -1.6 °C 27.6 °F /  -2.4 °C 29.93in /  1013.4hPa Calm     94% 0.00in /  0mm 39 W/m2
13:38 29.2 °F /  -1.6 °C 27.7 °F /  -2.4 °C 29.93in /  1013.4hPa Calm     94% 0.00in /  0mm 37 W/m2
13:44 29.2 °F /  -1.6 °C 27.7 °F /  -2.4 °C 29.93in /  1013.4hPa Calm     94% 0.00in /  0mm 32 W/m2
13:50 29.3 °F /  -1.5 °C 27.8 °F /  -2.3 °C 29.93in /  1013.4hPa Calm     94% 0.00in /  0mm 32 W/m2
13:56 29.4 °F /  -1.4 °C 27.9 °F /  -2.3 °C 29.93in /  1013.4hPa Calm     94% 0.00in /  0mm 37 W/m2
14:02 29.6 °F /  -1.3 °C 28.1 °F /  -2.2 °C 29.94in /  1013.8hPa Calm     94% 0.00in /  0mm 37 W/m2
14:08 29.6 °F /  -1.3 °C 28.1 °F /  -2.2 °C 29.94in /  1013.8hPa Calm     94% 0.00in /  0mm 37 W/m2
14:14 29.6 °F /  -1.3 °C 28.1 °F /  -2.2 °C 29.94in /  1013.8hPa Calm     94% 0.00in /  0mm 39 W/m2
14:20 29.7 °F /  -1.3 °C 28.2 °F /  -2.1 °C 29.95in /  1014.1hPa Calm     94% 0.00in /  0mm 33 W/m2
14:26 29.7 °F /  -1.3 °C 28.2 °F /  -2.1 °C 29.95in /  1014.1hPa Calm     94% 0.00in /  0mm 33 W/m2
14:32 29.8 °F /  -1.2 °C 28.3 °F /  -2.1 °C 29.96in /  1014.4hPa Calm     94% 0.00in /  0mm 28 W/m2
14:38 29.6 °F /  -1.3 °C 28.1 °F /  -2.2 °C 29.96in /  1014.4hPa Calm     94% 0.00in /  0mm 26 W/m2
14:44 29.4 °F /  -1.4 °C 27.9 °F /  -2.3 °C 29.96in /  1014.4hPa Calm     94% 0.00in /  0mm 26 W/m2
14:50 29.2 °F /  -1.6 °C 27.7 °F /  -2.4 °C 29.96in /  1014.4hPa Calm     94% 0.00in /  0mm 30 W/m2
14:56 29.1 °F /  -1.6 °C 27.6 °F /  -2.4 °C 29.96in /  1014.4hPa Calm     94% 0.00in /  0mm 28 W/m2
15:02 29.0 °F /  -1.7 °C 27.5 °F /  -2.5 °C 29.96in /  1014.4hPa Calm     94% 0.00in /  0mm 26 W/m2
15:08 29.0 °F /  -1.7 °C 27.5 °F /  -2.5 °C 29.97in /  1014.8hPa Calm     94% 0.00in /  0mm 26 W/m2
15:14 28.9 °F /  -1.7 °C 27.4 °F /  -2.6 °C 29.97in /  1014.8hPa Calm     94% 0.00in /  0mm 26 W/m2
15:20 28.7 °F /  -1.8 °C 27.2 °F /  -2.7 °C 29.98in /  1015.1hPa Calm     94% 0.00in /  0mm 26 W/m2
15:26 28.7 °F /  -1.8 °C 27.2 °F /  -2.7 °C 29.98in /  1015.1hPa Calm     94% 0.00in /  0mm 25 W/m2
15:32 28.7 °F /  -1.8 °C 27.2 °F /  -2.7 °C 29.98in /  1015.1hPa Calm     94% 0.00in /  0mm 21 W/m2
15:38 28.6 °F /  -1.9 °C 27.1 °F /  -2.7 °C 29.99in /  1015.5hPa Calm     94% 0.00in /  0mm 21 W/m2
15:44 28.5 °F /  -1.9 °C 27.0 °F /  -2.8 °C 29.99in /  1015.5hPa Calm     94% 0.00in /  0mm 18 W/m2
15:50 28.4 °F /  -2 °C 26.9 °F /  -2.8 °C 29.99in /  1015.5hPa Calm     94% 0.00in /  0mm 18 W/m2
15:58 28.3 °F /  -2.1 °C 26.8 °F /  -2.9 °C 30.00in /  1015.8hPa Calm     94% 0.00in /  0mm 16 W/m2
16:04 28.2 °F /  -2.1 °C 26.7 °F /  -2.9 °C 30.01in /  1016.1hPa Calm     94% 0.00in /  0mm 14 W/m2
16:10 28.3 °F /  -2.1 °C 26.8 °F /  -2.9 °C 30.01in /  1016.1hPa Calm     94% 0.00in /  0mm 14 W/m2
16:16 28.3 °F /  -2.1 °C 26.8 °F /  -2.9 °C 30.02in /  1016.5hPa Calm     94% 0.00in /  0mm 12 W/m2
16:22 28.3 °F /  -2.1 °C 26.8 °F /  -2.9 °C 30.02in /  1016.5hPa Calm     94% 0.00in /  0mm 11 W/m2
16:28 28.3 °F /  -2.1 °C 26.8 °F /  -2.9 °C 30.02in /  1016.5hPa Calm     94% 0.00in /  0mm 9 W/m2
16:34 28.3 °F /  -2.1 °C 26.8 °F /  -2.9 °C 30.03in /  1016.8hPa Calm     94% 0.00in /  0mm 9 W/m2
16:40 28.2 °F /  -2.1 °C 26.7 °F /  -2.9 °C 30.03in /  1016.8hPa Calm     94% 0.00in /  0mm 7 W/m2
16:46 28.2 °F /  -2.1 °C 26.7 °F /  -2.9 °C 30.03in /  1016.8hPa Calm     94% 0.00in /  0mm 9 W/m2
16:52 28.1 °F /  -2.2 °C 26.6 °F /  -3 °C 30.04in /  1017.2hPa Calm     94% 0.00in /  0mm 9 W/m2
16:58 28.1 °F /  -2.2 °C 26.6 °F /  -3 °C 30.04in /  1017.2hPa Calm     94% 0.00in /  0mm 9 W/m2
17:04 28.1 °F /  -2.2 °C 26.6 °F /  -3 °C 30.05in /  1017.5hPa Calm     94% 0.00in /  0mm 7 W/m2
17:10 28.1 °F /  -2.2 °C 26.6 °F /  -3 °C 30.05in /  1017.5hPa Calm     94% 0.00in /  0mm 5 W/m2
17:16 28.0 °F /  -2.2 °C 26.5 °F /  -3.1 °C 30.06in /  1017.8hPa Calm     94% 0.00in /  0mm 5 W/m2
17:22 28.1 °F /  -2.2 °C 26.6 °F /  -3 °C 30.06in /  1017.8hPa Calm     94% 0.00in /  0mm 5 W/m2
17:28 28.1 °F /  -2.2 °C 26.6 °F /  -3 °C 30.07in /  1018.2hPa Calm     94% 0.00in /  0mm 0 W/m2
17:34 28.0 °F /  -2.2 °C 26.5 °F /  -3.1 °C 30.07in /  1018.2hPa Calm     94% 0.00in /  0mm 0 W/m2
17:40 28.0 °F /  -2.2 °C 26.5 °F /  -3.1 °C 30.07in /  1018.2hPa Calm     94% 0.00in /  0mm 0 W/m2
17:46 28.0 °F /  -2.2 °C 26.5 °F /  -3.1 °C 30.07in /  1018.2hPa Calm     94% 0.00in /  0mm 0 W/m2
17:52 28.1 °F /  -2.2 °C 26.6 °F /  -3 °C 30.08in /  1018.5hPa Calm     94% 0.00in /  0mm 0 W/m2
17:58 28.0 °F /  -2.2 °C 26.5 °F /  -3.1 °C 30.08in /  1018.5hPa Calm     94% 0.00in /  0mm 0 W/m2
18:04 28.0 °F /  -2.2 °C 26.5 °F /  -3.1 °C 30.09in /  1018.8hPa Calm     94% 0.00in /  0mm 0 W/m2
18:10 28.1 °F /  -2.2 °C 26.6 °F /  -3 °C 30.08in /  1018.5hPa Calm     94% 0.00in /  0mm 0 W/m2
18:16 28.1 °F /  -2.2 °C 26.6 °F /  -3 °C 30.09in /  1018.8hPa Calm     94% 0.00in /  0mm 0 W/m2
18:22 28.1 °F /  -2.2 °C 26.6 °F /  -3 °C 30.09in /  1018.8hPa Calm     94% 0.00in /  0mm 0 W/m2
18:28 28.1 °F /  -2.2 °C 26.6 °F /  -3 °C 30.09in /  1018.8hPa Calm     94% 0.00in /  0mm 0 W/m2
18:34 28.0 °F /  -2.2 °C 26.5 °F /  -3.1 °C 30.10in /  1019.2hPa Calm     94% 0.00in /  0mm 0 W/m2
18:40 28.1 °F /  -2.2 °C 26.6 °F /  -3 °C 30.10in /  1019.2hPa Calm     94% 0.00in /  0mm 0 W/m2
18:46 28.0 °F /  -2.2 °C 26.5 °F /  -3.1 °C 30.10in /  1019.2hPa Calm     94% 0.00in /  0mm 0 W/m2
18:52 28.1 °F /  -2.2 °C 26.6 °F /  -3 °C 30.10in /  1019.2hPa Calm     94% 0.00in /  0mm 0 W/m2
18:58 28.1 °F /  -2.2 °C 26.6 °F /  -3 °C 30.10in /  1019.2hPa Calm     94% 0.00in /  0mm 0 W/m2
19:04 28.1 °F /  -2.2 °C 26.6 °F /  -3 °C 30.11in /  1019.5hPa Calm     94% 0.00in /  0mm 0 W/m2
19:10 28.1 °F /  -2.2 °C 26.6 °F /  -3 °C 30.11in /  1019.5hPa Calm     94% 0.00in /  0mm 0 W/m2
19:16 28.2 °F /  -2.1 °C 26.7 °F /  -2.9 °C 30.11in /  1019.5hPa Calm     94% 0.00in /  0mm 0 W/m2
19:22 28.1 °F /  -2.2 °C 26.6 °F /  -3 °C 30.12in /  1019.9hPa Calm     94% 0.00in /  0mm 0 W/m2
19:28 28.1 °F /  -2.2 °C 26.6 °F /  -3 °C 30.12in /  1019.9hPa Calm     94% 0.00in /  0mm 0 W/m2
19:34 28.1 °F /  -2.2 °C 26.6 °F /  -3 °C 30.12in /  1019.9hPa Calm     94% 0.00in /  0mm 0 W/m2
19:40 28.1 °F /  -2.2 °C 26.6 °F /  -3 °C 30.12in /  1019.9hPa Calm     94% 0.00in /  0mm 0 W/m2
19:46 28.2 °F /  -2.1 °C 26.7 °F /  -2.9 °C 30.12in /  1019.9hPa Calm     94% 0.00in /  0mm 0 W/m2
19:52 28.2 °F /  -2.1 °C 26.7 °F /  -2.9 °C 30.12in /  1019.9hPa Calm     94% 0.00in /  0mm 0 W/m2
19:58 28.3 °F /  -2.1 °C 26.8 °F /  -2.9 °C 30.12in /  1019.9hPa Calm     94% 0.00in /  0mm 0 W/m2
20:04 28.3 °F /  -2.1 °C 26.8 °F /  -2.9 °C 30.12in /  1019.9hPa Calm     94% 0.00in /  0mm 0 W/m2
20:10 28.3 °F /  -2.1 °C 26.8 °F /  -2.9 °C 30.12in /  1019.9hPa Calm     94% 0.00in /  0mm 0 W/m2
20:16 28.3 °F /  -2.1 °C 26.8 °F /  -2.9 °C 30.13in /  1020.2hPa Calm     94% 0.00in /  0mm 0 W/m2
20:22 28.3 °F /  -2.1 °C 26.8 °F /  -2.9 °C 30.13in /  1020.2hPa Calm     94% 0.00in /  0mm 0 W/m2
20:28 28.3 °F /  -2.1 °C 26.8 °F /  -2.9 °C 30.13in /  1020.2hPa Calm     94% 0.00in /  0mm 0 W/m2
20:34 28.3 °F /  -2.1 °C 26.8 °F /  -2.9 °C 30.13in /  1020.2hPa Calm     94% 0.00in /  0mm 0 W/m2
20:40 28.3 °F /  -2.1 °C 26.8 °F /  -2.9 °C 30.13in /  1020.2hPa Calm     94% 0.00in /  0mm 0 W/m2
20:46 28.3 °F /  -2.1 °C 26.8 °F /  -2.9 °C 30.13in /  1020.2hPa Calm     94% 0.00in /  0mm 0 W/m2
20:52 28.3 °F /  -2.1 °C 26.8 °F /  -2.9 °C 30.13in /  1020.2hPa Calm     94% 0.00in /  0mm 0 W/m2
20:58 28.3 °F /  -2.1 °C 26.8 °F /  -2.9 °C 30.13in /  1020.2hPa Calm     94% 0.00in /  0mm 0 W/m2
21:04 28.3 °F /  -2.1 °C 26.8 °F /  -2.9 °C 30.13in /  1020.2hPa Calm     94% 0.00in /  0mm 0 W/m2
21:10 28.3 °F /  -2.1 °C 26.8 °F /  -2.9 °C 30.14in /  1020.5hPa Calm     94% 0.00in /  0mm 0 W/m2
21:16 28.3 °F /  -2.1 °C 26.8 °F /  -2.9 °C 30.13in /  1020.2hPa Calm     94% 0.00in /  0mm 0 W/m2
21:22 28.3 °F /  -2.1 °C 26.8 °F /  -2.9 °C 30.14in /  1020.5hPa Calm     94% 0.00in /  0mm 0 W/m2
21:28 28.3 °F /  -2.1 °C 26.8 °F /  -2.9 °C 30.14in /  1020.5hPa Calm     94% 0.00in /  0mm 0 W/m2
21:34 28.3 °F /  -2.1 °C 26.8 °F /  -2.9 °C 30.14in /  1020.5hPa Calm     94% 0.00in /  0mm 0 W/m2
21:40 28.3 °F /  -2.1 °C 26.8 °F /  -2.9 °C 30.14in /  1020.5hPa Calm     94% 0.00in /  0mm 0 W/m2
21:46 28.3 °F /  -2.1 °C 26.8 °F /  -2.9 °C 30.14in /  1020.5hPa Calm     94% 0.00in /  0mm 0 W/m2
21:52 28.2 °F /  -2.1 °C 26.7 °F /  -2.9 °C 30.14in /  1020.5hPa Calm     94% 0.00in /  0mm 0 W/m2
21:58 28.2 °F /  -2.1 °C 26.7 °F /  -2.9 °C 30.14in /  1020.5hPa Calm     94% 0.00in /  0mm 0 W/m2
22:04 28.2 °F /  -2.1 °C 26.7 °F /  -2.9 °C 30.14in /  1020.5hPa Calm     94% 0.00in /  0mm 0 W/m2
22:10 28.2 °F /  -2.1 °C 26.7 °F /  -2.9 °C 30.14in /  1020.5hPa Calm     94% 0.00in /  0mm 0 W/m2
22:16 28.2 °F /  -2.1 °C 26.7 °F /  -2.9 °C 30.14in /  1020.5hPa Calm     94% 0.00in /  0mm 0 W/m2
22:22 28.2 °F /  -2.1 °C 26.7 °F /  -2.9 °C 30.13in /  1020.2hPa Calm     94% 0.00in /  0mm 0 W/m2
22:28 28.1 °F /  -2.2 °C 26.6 °F /  -3 °C 30.13in /  1020.2hPa Calm     94% 0.00in /  0mm 0 W/m2
22:34 28.2 °F /  -2.1 °C 26.7 °F /  -2.9 °C 30.13in /  1020.2hPa Calm     94% 0.00in /  0mm 0 W/m2
22:40 28.2 °F /  -2.1 °C 26.7 °F /  -2.9 °C 30.14in /  1020.5hPa Calm     94% 0.00in /  0mm 0 W/m2
22:46 28.1 °F /  -2.2 °C 26.6 °F /  -3 °C 30.14in /  1020.5hPa Calm     94% 0.00in /  0mm 0 W/m2
22:52 28.2 °F /  -2.1 °C 26.7 °F /  -2.9 °C 30.14in /  1020.5hPa Calm     94% 0.00in /  0mm 0 W/m2
22:58 28.2 °F /  -2.1 °C 26.7 °F /  -2.9 °C 30.14in /  1020.5hPa Calm     94% 0.00in /  0mm 0 W/m2
23:04 28.2 °F /  -2.1 °C 26.7 °F /  -2.9 °C 30.14in /  1020.5hPa Calm     94% 0.00in /  0mm 0 W/m2
23:10 28.2 °F /  -2.1 °C 26.7 °F /  -2.9 °C 30.14in /  1020.5hPa Calm     94% 0.00in /  0mm 0 W/m2
23:16 28.2 °F /  -2.1 °C 26.7 °F /  -2.9 °C 30.14in /  1020.5hPa Calm     94% 0.00in /  0mm 0 W/m2
23:22 28.2 °F /  -2.1 °C 26.7 °F /  -2.9 °C 30.14in /  1020.5hPa Calm     94% 0.00in /  0mm 0 W/m2
23:28 28.2 °F /  -2.1 °C 26.7 °F /  -2.9 °C 30.15in /  1020.9hPa Calm     94% 0.00in /  0mm 0 W/m2
23:34 28.2 °F /  -2.1 °C 26.7 °F /  -2.9 °C 30.14in /  1020.5hPa Calm     94% 0.00in /  0mm 0 W/m2
23:40 28.3 °F /  -2.1 °C 26.8 °F /  -2.9 °C 30.14in /  1020.5hPa Calm     94% 0.00in /  0mm 0 W/m2
23:46 28.2 °F /  -2.1 °C 26.7 °F /  -2.9 °C 30.14in /  1020.5hPa Calm     94% 0.00in /  0mm 0 W/m2
23:52 28.2 °F /  -2.1 °C 26.7 °F /  -2.9 °C 30.14in /  1020.5hPa Calm     94% 0.00in /  0mm 0 W/m2
23:58 28.2 °F /  -2.1 °C 26.7 °F /  -2.9 °C 30.15in /  1020.9hPa Calm     94% 0.00in /  0mm 0 W/m2
Country Meadow, Clay, NY, USA
Compliments of Weather Underground - 2 mb